createdAt,value
2019-06-07T00:00:04.069Z,3.75
2019-06-07T00:01:02.843Z,3.96
2019-06-07T00:02:03.310Z,3.64
2019-06-07T00:03:02.861Z,3.54
2019-06-07T00:04:03.257Z,3.62
2019-06-07T00:05:02.810Z,3.42
2019-06-07T00:06:02.671Z,3.72
2019-06-07T00:07:03.397Z,3.64
2019-06-07T00:08:12.965Z,3.76
2019-06-07T00:09:03.306Z,3.3
2019-06-07T00:10:03.127Z,3.5
2019-06-07T00:11:02.655Z,2.88
2019-06-07T00:12:03.164Z,3.42
2019-06-07T00:13:03.012Z,3.25
2019-06-07T00:14:02.824Z,3.25
2019-06-07T00:15:03.444Z,3.02
2019-06-07T00:16:02.802Z,2.86
2019-06-07T00:17:03.531Z,2.86
2019-06-07T00:18:02.539Z,3.48
2019-06-07T00:19:02.635Z,3.55
2019-06-07T00:20:03.543Z,3.68
2019-06-07T00:21:02.914Z,3.48
2019-06-07T00:22:33.239Z,3.72
2019-06-07T00:23:02.957Z,3.58
2019-06-07T00:24:02.706Z,4.24
2019-06-07T00:25:03.453Z,3.96
2019-06-07T00:26:03.289Z,3.8
2019-06-07T00:27:02.894Z,4.03
2019-06-07T00:28:03.414Z,3.92
2019-06-07T00:29:02.985Z,3.59
2019-06-07T00:30:42.041Z,4.19
2019-06-07T00:31:03.246Z,3.98
2019-06-07T00:32:03.071Z,4.19
2019-06-07T00:33:02.449Z,4.09
2019-06-07T00:34:03.089Z,4.29
2019-06-07T00:35:02.741Z,4.26
2019-06-07T00:36:03.070Z,4.55
2019-06-07T00:37:02.637Z,4.69
2019-06-07T00:38:02.534Z,3.98
2019-06-07T00:39:03.350Z,3.65
2019-06-07T00:40:20.476Z,3.78
2019-06-07T00:41:02.573Z,3.88
2019-06-07T00:42:03.124Z,3.7
2019-06-07T00:43:02.695Z,3.72
2019-06-07T00:44:03.400Z,4.05
2019-06-07T00:45:03.327Z,4.35
2019-06-07T00:46:02.700Z,3.54
2019-06-07T00:47:03.490Z,3.92
2019-06-07T00:48:03.169Z,3.93
2019-06-07T00:49:02.645Z,3.41
2019-06-07T00:50:03.296Z,3.68
2019-06-07T00:51:02.903Z,3.75
2019-06-07T00:52:02.800Z,3.77
2019-06-07T00:53:32.287Z,3.72
2019-06-07T00:54:02.866Z,3.46
2019-06-07T00:55:02.542Z,3.78
2019-06-07T00:56:03.139Z,3.59
2019-06-07T00:57:02.930Z,3.85
2019-06-07T00:58:02.704Z,4.16
2019-06-07T00:59:14.605Z,4.22
2019-06-07T01:00:02.838Z,3.78
2019-06-07T01:01:03.375Z,3.72
2019-06-07T01:02:03.030Z,3.92
2019-06-07T01:03:02.707Z,3.96
2019-06-07T01:04:03.114Z,4.45
2019-06-07T01:05:02.860Z,4.45
2019-06-07T01:06:02.693Z,4.38
2019-06-07T01:07:03.282Z,3.74
2019-06-07T01:08:04.070Z,3.74
2019-06-07T01:09:02.737Z,4.18
2019-06-07T01:10:03.642Z,4.4
2019-06-07T01:11:03.059Z,4.1
2019-06-07T01:12:02.526Z,4.89
2019-06-07T01:13:03.158Z,4.7
2019-06-07T01:14:02.739Z,4.84
2019-06-07T01:15:02.534Z,4.26
2019-06-07T01:16:03.079Z,3.81
2019-06-07T01:17:36.162Z,4.02
2019-06-07T01:18:38.120Z,4.03
2019-06-07T01:20:03.544Z,3.95
2019-06-07T01:21:03.321Z,3.68
2019-06-07T01:22:02.941Z,3.95
2019-06-07T01:23:02.379Z,4.01
2019-06-07T01:24:12.685Z,4.23
2019-06-07T01:25:02.720Z,4.24
2019-06-07T01:26:02.276Z,3.82
2019-06-07T01:27:03.125Z,4.15
2019-06-07T01:28:02.507Z,3.78
2019-06-07T01:29:03.397Z,3.88
2019-06-07T01:30:03.248Z,4.07
2019-06-07T01:31:02.870Z,3.42
2019-06-07T01:32:02.672Z,4.16
2019-06-07T01:33:03.718Z,4.35
2019-06-07T01:34:02.769Z,3.92
2019-06-07T01:35:03.685Z,3.98
2019-06-07T01:36:03.314Z,4.18
2019-06-07T01:37:02.299Z,4.09
2019-06-07T01:38:03.193Z,3.18
2019-06-07T01:39:02.910Z,3.85
2019-06-07T01:40:02.435Z,4
2019-06-07T01:41:03.237Z,4.58
2019-06-07T01:42:02.718Z,4.18
2019-06-07T01:43:03.376Z,4.79
2019-06-07T01:44:03.093Z,4.21
2019-06-07T01:45:02.547Z,4.08
2019-06-07T01:46:03.326Z,4.59
2019-06-07T01:47:02.698Z,3.95
2019-06-07T01:48:03.361Z,4.28
2019-06-07T01:49:03.161Z,4.51
2019-06-07T01:50:02.889Z,4.21
2019-06-07T01:51:03.709Z,3.62
2019-06-07T01:52:03.501Z,4.31
2019-06-07T01:53:02.586Z,4.31
2019-06-07T01:54:57.709Z,4.44
2019-06-07T01:56:02.582Z,4.37
2019-06-07T01:57:03.170Z,4.68
2019-06-07T01:58:02.623Z,4.52
2019-06-07T01:59:02.598Z,4.52
2019-06-07T02:00:03.209Z,4.6
2019-06-07T02:01:03.016Z,4.38
2019-06-07T02:02:03.436Z,5.4
2019-06-07T02:03:02.832Z,5.11
2019-06-07T02:04:03.558Z,5.28
2019-06-07T02:05:03.446Z,5.79
2019-06-07T02:06:02.864Z,4.96
2019-06-07T02:07:03.384Z,5.2
2019-06-07T02:08:02.835Z,5.32
2019-06-07T02:09:03.626Z,4.86
2019-06-07T02:10:03.236Z,5.32
2019-06-07T02:11:02.803Z,4.95
2019-06-07T02:12:02.473Z,5.14
2019-06-07T02:13:03.268Z,5.44
2019-06-07T02:14:02.890Z,5.04
2019-06-07T02:15:04.112Z,5.04
2019-06-07T02:16:03.275Z,4.68
2019-06-07T02:17:02.757Z,4.41
2019-06-07T02:18:03.521Z,4.68
2019-06-07T02:19:04.122Z,4.98
2019-06-07T02:20:02.721Z,6.87
2019-06-07T02:21:03.073Z,5.21
2019-06-07T02:22:03.031Z,5.39
2019-06-07T02:23:02.711Z,4.88
2019-06-07T02:24:03.517Z,4.92
2019-06-07T02:25:43.541Z,5.24
2019-06-07T02:26:02.499Z,5.18
2019-06-07T02:27:03.086Z,5.58
2019-06-07T02:28:36.374Z,5.07
2019-06-07T02:29:03.461Z,4.91
2019-06-07T02:30:43.851Z,5.3
2019-06-07T02:31:02.564Z,4.52
2019-06-07T02:32:03.361Z,4.78
2019-06-07T02:33:02.970Z,4.65
2019-06-07T02:34:02.655Z,5.02
2019-06-07T02:35:03.662Z,5.24
2019-06-07T02:36:03.161Z,5.28
2019-06-07T02:37:02.844Z,5.14
2019-06-07T02:38:03.181Z,4.98
2019-06-07T02:39:02.758Z,5.63
2019-06-07T02:40:03.435Z,5.36
2019-06-07T02:41:03.050Z,4.99
2019-06-07T02:42:02.576Z,4.99
2019-06-07T02:43:03.337Z,5.21
2019-06-07T02:44:03.032Z,5.21
2019-06-07T02:45:02.499Z,5.2
2019-06-07T02:46:32.401Z,5.58
2019-06-07T02:47:02.766Z,5.58
2019-06-07T02:48:03.220Z,5.59
2019-06-07T02:49:02.713Z,5.53
2019-06-07T02:50:03.606Z,4.81
2019-06-07T02:51:03.187Z,4.88
2019-06-07T02:52:02.557Z,5.09
2019-06-07T02:53:03.004Z,4.17
2019-06-07T02:54:02.782Z,4.56
2019-06-07T02:55:03.475Z,4.68
2019-06-07T02:56:43.844Z,4.5
2019-06-07T02:57:03.223Z,4.75
2019-06-07T02:58:03.299Z,4.85
2019-06-07T02:59:02.935Z,4.34
2019-06-07T03:00:54.303Z,4.43
2019-06-07T03:01:09.971Z,5.03
2019-06-07T03:02:03.050Z,4.17
2019-06-07T03:03:03.414Z,5.22
2019-06-07T03:04:02.787Z,4.89
2019-06-07T03:05:02.713Z,5.33
2019-06-07T03:06:03.184Z,5.11
2019-06-07T03:07:03.058Z,4.67
2019-06-07T03:08:02.612Z,6.25
2019-06-07T03:09:03.122Z,5.56
2019-06-07T03:10:02.934Z,5.16
2019-06-07T03:11:03.517Z,5.31
2019-06-07T03:12:03.134Z,5.11
2019-06-07T03:13:03.070Z,5.62
2019-06-07T03:14:03.225Z,5.54
2019-06-07T03:15:03.198Z,5.52
2019-06-07T03:16:02.610Z,5.74
2019-06-07T03:17:03.430Z,5.39
2019-06-07T03:18:03.177Z,5.56
2019-06-07T03:19:02.461Z,6.18
2019-06-07T03:20:02.340Z,6.54
2019-06-07T03:21:05.816Z,6.73
2019-06-07T03:22:02.559Z,6.59
2019-06-07T03:23:03.381Z,6.12
2019-06-07T03:24:02.864Z,5.96
2019-06-07T03:25:02.623Z,5.77
2019-06-07T03:26:03.239Z,5.92
2019-06-07T03:27:39.643Z,5.93
2019-06-07T03:28:02.518Z,6.64
2019-06-07T03:29:02.950Z,7.15
2019-06-07T03:30:47.894Z,7.79
2019-06-07T03:31:03.503Z,7.74
2019-06-07T03:32:03.122Z,7.66
2019-06-07T03:33:02.763Z,8.01
2019-06-07T03:34:03.237Z,7.51
2019-06-07T03:35:02.963Z,7.51
2019-06-07T03:36:25.713Z,7.58
2019-06-07T03:37:03.154Z,7.58
2019-06-07T03:38:02.962Z,6.62
2019-06-07T03:39:03.651Z,6.92
2019-06-07T03:40:03.278Z,6.78
2019-06-07T03:41:02.483Z,6.71
2019-06-07T03:42:08.550Z,7.15
2019-06-07T03:43:02.774Z,7.28
2019-06-07T03:44:02.538Z,6.92
2019-06-07T03:45:03.234Z,7.62
2019-06-07T03:46:03.121Z,7.88
2019-06-07T03:47:03.202Z,7.82
2019-06-07T03:48:02.649Z,7.41
2019-06-07T03:49:02.748Z,7.45
2019-06-07T03:50:02.590Z,7.26
2019-06-07T03:51:20.405Z,7.31
2019-06-07T03:52:02.576Z,7.3
2019-06-07T03:53:03.188Z,6.81
2019-06-07T03:54:02.901Z,6.71
2019-06-07T03:55:02.649Z,7.31
2019-06-07T03:56:03.355Z,7.05
2019-06-07T03:57:02.965Z,7.4
2019-06-07T03:58:36.601Z,6.63
2019-06-07T03:59:03.356Z,7.46
2019-06-07T04:00:03.491Z,7.28
2019-06-07T04:01:02.831Z,7.12
2019-06-07T04:02:03.215Z,6.81
2019-06-07T04:03:02.666Z,7.49
2019-06-07T04:04:02.563Z,6.86
2019-06-07T04:05:03.211Z,7.41
2019-06-07T04:06:02.847Z,7.74
2019-06-07T04:07:03.171Z,7.65
2019-06-07T04:08:03.573Z,7.51
2019-06-07T04:09:02.777Z,7.65
2019-06-07T04:10:03.531Z,7.91
2019-06-07T04:11:03.009Z,7.46
2019-06-07T04:12:02.770Z,6.97
2019-06-07T04:13:03.252Z,7.04
2019-06-07T04:14:02.999Z,7.32
2019-06-07T04:15:02.780Z,7.71
2019-06-07T04:16:03.357Z,8.23
2019-06-07T04:17:02.906Z,7.78
2019-06-07T04:18:04.260Z,7.69
2019-06-07T04:19:03.023Z,7.59
2019-06-07T04:20:03.127Z,7.45
2019-06-07T04:21:03.565Z,7.45
2019-06-07T04:22:03.075Z,7.26
2019-06-07T04:23:03.352Z,7.75
2019-06-07T04:24:02.974Z,7.75
2019-06-07T04:25:02.787Z,8.24
2019-06-07T04:26:03.170Z,8.72
2019-06-07T04:27:02.678Z,7.29
2019-06-07T04:28:02.401Z,7.29
2019-06-07T04:29:47.776Z,7.91
2019-06-07T04:30:08.410Z,8.64
2019-06-07T04:31:02.953Z,7.89
2019-06-07T04:32:04.570Z,7.91
2019-06-07T04:33:03.536Z,8.31
2019-06-07T04:34:03.145Z,7.82
2019-06-07T04:35:02.705Z,8.32
2019-06-07T04:36:02.684Z,7.45
2019-06-07T04:37:03.107Z,7.66
2019-06-07T04:38:02.653Z,8.06
2019-06-07T04:39:02.553Z,7.67
2019-06-07T04:40:03.135Z,7.98
2019-06-07T04:41:02.714Z,7.3
2019-06-07T04:42:03.324Z,7.88
2019-06-07T04:43:02.909Z,8.61
2019-06-07T04:44:02.901Z,9.05
2019-06-07T04:45:03.199Z,8.31
2019-06-07T04:46:02.461Z,7.22
2019-06-07T04:47:03.549Z,6.69
2019-06-07T04:48:03.028Z,8.04
2019-06-07T04:49:02.513Z,8.29
2019-06-07T04:50:03.131Z,8.59
2019-06-07T04:51:02.928Z,8.55
2019-06-07T04:52:03.444Z,7.92
2019-06-07T04:53:03.039Z,7.72
2019-06-07T04:54:02.486Z,8.01
2019-06-07T04:55:03.419Z,7.21
2019-06-07T04:56:02.793Z,7.45
2019-06-07T04:57:03.186Z,7.49
2019-06-07T04:58:02.836Z,7.72
2019-06-07T04:59:02.889Z,7.75
2019-06-07T05:00:53.066Z,6.96
2019-06-07T05:01:03.970Z,7.39
2019-06-07T05:02:03.589Z,7.62
2019-06-07T05:03:03.282Z,7.3
2019-06-07T05:04:02.887Z,6.45
2019-06-07T05:05:03.636Z,7.12
2019-06-07T05:06:03.108Z,6.92
2019-06-07T05:07:02.632Z,7.43
2019-06-07T05:08:18.212Z,7.41
2019-06-07T05:09:02.805Z,7.08
2019-06-07T05:10:02.683Z,7.05
2019-06-07T05:11:03.135Z,6.64
2019-06-07T05:12:03.065Z,6.68
2019-06-07T05:13:03.442Z,6.99
2019-06-07T05:14:03.248Z,6.78
2019-06-07T05:15:02.731Z,7.65
2019-06-07T05:16:03.363Z,7.65
2019-06-07T05:17:02.847Z,7.96
2019-06-07T05:18:02.464Z,7.23
2019-06-07T05:19:03.439Z,7.23
2019-06-07T05:20:03.039Z,7.75
2019-06-07T05:21:02.535Z,7.34
2019-06-07T05:22:05.509Z,7.34
2019-06-07T05:23:02.716Z,7.25
2019-06-07T05:24:10.686Z,7.05
2019-06-07T05:25:02.781Z,7.55
2019-06-07T05:26:03.480Z,6.74
2019-06-07T05:27:02.991Z,6.23
2019-06-07T05:28:02.721Z,7.45
2019-06-07T05:29:03.370Z,6.48
2019-06-07T05:31:04.278Z,7.85
2019-06-07T05:31:07.952Z,6.52
2019-06-07T05:32:03.279Z,7.09
2019-06-07T05:33:02.783Z,6.68
2019-06-07T05:34:02.604Z,6.98
2019-06-07T05:35:03.627Z,6.92
2019-06-07T05:36:02.662Z,6.51
2019-06-07T05:37:12.294Z,6.41
2019-06-07T05:38:03.172Z,6.76
2019-06-07T05:39:02.782Z,6.68
2019-06-07T05:40:03.278Z,6.56
2019-06-07T05:41:02.712Z,6.77
2019-06-07T05:42:02.606Z,6.01
2019-06-07T05:43:03.412Z,7.21
2019-06-07T05:44:13.285Z,7.02
2019-06-07T05:45:02.566Z,6.64
2019-06-07T05:46:03.373Z,6.67
2019-06-07T05:47:02.832Z,7.21
2019-06-07T05:48:02.870Z,6.86
2019-06-07T05:49:03.176Z,6.85
2019-06-07T05:50:03.437Z,6.84
2019-06-07T05:51:03.337Z,6.88
2019-06-07T05:52:03.021Z,6.86
2019-06-07T05:53:02.882Z,7.25
2019-06-07T05:54:02.803Z,6.52
2019-06-07T05:55:03.444Z,7.15
2019-06-07T05:56:04.208Z,7.31
2019-06-07T05:57:02.765Z,7.01
2019-06-07T05:58:02.674Z,6.86
2019-06-07T05:59:02.373Z,7.44
2019-06-07T06:00:03.050Z,6.25
2019-06-07T06:01:46.196Z,7.26
2019-06-07T06:02:23.130Z,7.44
2019-06-07T06:03:06.255Z,6.65
2019-06-07T06:04:02.732Z,7.02
2019-06-07T06:05:03.248Z,7.02
2019-06-07T06:06:03.033Z,7.11
2019-06-07T06:07:02.923Z,7.11
2019-06-07T06:08:03.141Z,6.46
2019-06-07T06:09:14.290Z,6.31
2019-06-07T06:10:03.364Z,6.31
2019-06-07T06:11:03.114Z,6.26
2019-06-07T06:12:02.741Z,7.25
2019-06-07T06:13:03.386Z,7.25
2019-06-07T06:14:08.626Z,6.91
2019-06-07T06:15:02.910Z,6.62
2019-06-07T06:16:02.991Z,7.24
2019-06-07T06:17:02.776Z,6.86
2019-06-07T06:18:02.624Z,7.06
2019-06-07T06:19:03.020Z,6.75
2019-06-07T06:20:03.524Z,6.87
2019-06-07T06:21:19.875Z,6.12
2019-06-07T06:22:02.673Z,6.63
2019-06-07T06:23:03.185Z,6.58
2019-06-07T06:24:03.177Z,6.69
2019-06-07T06:25:33.729Z,6.42
2019-06-07T06:26:02.549Z,6.24
2019-06-07T06:28:05.714Z,6.52
2019-06-07T06:28:12.834Z,7.39
2019-06-07T06:29:03.499Z,6.49
2019-06-07T06:30:03.294Z,6.44
2019-06-07T06:31:02.621Z,6.26
2019-06-07T06:32:46.597Z,6.57
2019-06-07T06:33:02.841Z,6.65
2019-06-07T06:34:02.701Z,6.62
2019-06-07T06:35:03.389Z,6.39
2019-06-07T06:36:02.751Z,6.99
2019-06-07T06:37:02.921Z,6.06
2019-06-07T06:38:03.323Z,6.48
2019-06-07T06:39:02.866Z,7.42
2019-06-07T06:40:03.314Z,6.45
2019-06-07T06:41:16.626Z,7.05
2019-06-07T06:42:04.042Z,6.45
2019-06-07T06:43:02.233Z,6.35
2019-06-07T06:44:03.292Z,6.25
2019-06-07T06:45:03.128Z,6.49
2019-06-07T06:46:03.200Z,6.29
2019-06-07T06:47:03.051Z,7.23
2019-06-07T06:48:02.549Z,6.53
2019-06-07T06:49:03.511Z,6.54
2019-06-07T06:50:03.249Z,6.04
2019-06-07T06:51:02.811Z,7.08
2019-06-07T06:52:03.471Z,6.51
2019-06-07T06:53:03.082Z,6.51
2019-06-07T06:54:03.333Z,6.82
2019-06-07T06:55:03.516Z,6.43
2019-06-07T06:56:02.645Z,6.73
2019-06-07T06:57:20.157Z,6.18
2019-06-07T06:58:03.262Z,6.18
2019-06-07T06:59:38.991Z,6.24
2019-06-07T07:00:02.814Z,6.24
2019-06-07T07:01:07.296Z,6.01
2019-06-07T07:02:02.791Z,5.99
2019-06-07T07:03:57.091Z,6.11
2019-06-07T07:04:13.469Z,6.53
2019-06-07T07:05:02.764Z,6.38
2019-06-07T07:06:26.633Z,6.8
2019-06-07T07:07:02.656Z,6.16
2019-06-07T07:08:02.550Z,5.79
2019-06-07T07:09:03.053Z,5.19
2019-06-07T07:10:03.329Z,5.38
2019-06-07T07:11:03.069Z,5.92
2019-06-07T07:12:13.067Z,6.08
2019-06-07T07:13:02.621Z,6.16
2019-06-07T07:14:03.341Z,6.51
2019-06-07T07:15:03.571Z,6.65
2019-06-07T07:16:02.895Z,6.21
2019-06-07T07:17:03.235Z,5.51
2019-06-07T07:18:09.100Z,5.92
2019-06-07T07:19:03.580Z,6.03
2019-06-07T07:20:03.237Z,5.39
2019-06-07T07:21:02.889Z,5.9
2019-06-07T07:22:03.445Z,5.73
2019-06-07T07:23:03.123Z,6.03
2019-06-07T07:24:21.940Z,6.15
2019-06-07T07:25:03.422Z,5.44
2019-06-07T07:26:03.422Z,5.12
2019-06-07T07:27:02.362Z,5.44
2019-06-07T07:28:03.379Z,5.41
2019-06-07T07:29:03.371Z,5.52
2019-06-07T07:30:37.244Z,5.45
2019-06-07T07:31:02.856Z,5.76
2019-06-07T07:32:02.629Z,5.12
2019-06-07T07:33:06.094Z,6.19
2019-06-07T07:34:36.424Z,6.54
2019-06-07T07:35:03.628Z,6.17
2019-06-07T07:37:02.974Z,5.51
2019-06-07T07:38:03.416Z,5.4
2019-06-07T07:39:06.063Z,5.35
2019-06-07T07:41:07.281Z,4.89
2019-06-07T07:41:15.955Z,4.81
2019-06-07T07:42:21.666Z,4.57
2019-06-07T07:43:02.623Z,5.35
2019-06-07T07:44:07.877Z,5.35
2019-06-07T07:45:03.283Z,5.37
2019-06-07T07:46:28.276Z,5.5
2019-06-07T07:47:03.204Z,5.5
2019-06-07T07:48:18.322Z,6.09
2019-06-07T07:49:02.593Z,5.72
2019-06-07T07:50:03.410Z,6
2019-06-07T07:51:03.642Z,5.79
2019-06-07T07:52:02.504Z,5.59
2019-06-07T07:53:03.215Z,5.26
2019-06-07T07:54:11.379Z,5.51
2019-06-07T07:55:03.193Z,5.4
2019-06-07T07:56:03.489Z,4.97
2019-06-07T07:57:02.887Z,4.96
2019-06-07T07:58:02.317Z,5.85
2019-06-07T07:59:03.232Z,5.21
2019-06-07T08:00:52.755Z,5.81
2019-06-07T08:01:11.295Z,4.65
2019-06-07T08:02:03.369Z,5.09
2019-06-07T08:03:04.797Z,4.72
2019-06-07T08:04:02.525Z,4.81
2019-06-07T08:05:41.815Z,5.05
2019-06-07T08:06:02.660Z,4.62
2019-06-07T08:07:03.494Z,4.53
2019-06-07T08:08:07.784Z,4.68
2019-06-07T08:09:03.660Z,4.82
2019-06-07T08:10:04.685Z,4.27
2019-06-07T08:11:02.798Z,5.14
2019-06-07T08:12:03.519Z,4.62
2019-06-07T08:13:26.259Z,5.15
2019-06-07T08:14:02.199Z,5.12
2019-06-07T08:15:04.291Z,4.76
2019-06-07T08:16:15.463Z,4.94
2019-06-07T08:17:03.496Z,4.24
2019-06-07T08:18:04.882Z,4.17
2019-06-07T08:19:04.702Z,4.68
2019-06-07T08:20:03.444Z,4.26
2019-06-07T08:21:25.180Z,3.84
2019-06-07T08:22:02.802Z,3.84
2019-06-07T08:23:03.254Z,4.62
2019-06-07T08:24:05.592Z,4.62
2019-06-07T08:25:04.659Z,4.63
2019-06-07T08:26:03.199Z,4.35
2019-06-07T08:27:26.625Z,4.55
2019-06-07T08:28:03.086Z,4.82
2019-06-07T08:29:03.545Z,4.64
2019-06-07T08:30:48.332Z,5.05
2019-06-07T08:31:07.882Z,4.32
2019-06-07T08:32:02.898Z,4.33
2019-06-07T08:33:26.566Z,4.24
2019-06-07T08:34:03.155Z,4.38
2019-06-07T08:35:07.089Z,4.36
2019-06-07T08:36:20.204Z,3.86
2019-06-07T08:37:03.005Z,3.84
2019-06-07T08:38:46.819Z,4.26
2019-06-07T08:39:07.881Z,3.46
2019-06-07T08:40:03.221Z,4.12
2019-06-07T08:41:12.688Z,4.36
2019-06-07T08:42:21.332Z,4.05
2019-06-07T08:43:20.944Z,4.34
2019-06-07T08:44:24.008Z,4.39
2019-06-07T08:45:05.849Z,4.21
2019-06-07T08:46:08.117Z,3.86
2019-06-07T08:47:20.821Z,4.17
2019-06-07T08:49:04.940Z,4.11
2019-06-07T08:50:08.191Z,3.64
2019-06-07T08:51:08.770Z,4.02
2019-06-07T08:52:12.032Z,4.01
2019-06-07T08:53:12.522Z,3.51
2019-06-07T08:54:23.308Z,3.98
2019-06-07T08:55:05.408Z,3.92
2019-06-07T08:56:11.277Z,3.67
2019-06-07T08:57:21.849Z,3.81
2019-06-07T08:58:09.007Z,3.81
2019-06-07T08:59:11.720Z,3.79
2019-06-07T09:00:43.481Z,3.79
2019-06-07T09:01:08.814Z,4.19
2019-06-07T09:02:23.181Z,4.34
2019-06-07T09:03:07.643Z,4.46
2019-06-07T09:04:11.274Z,3.8
2019-06-07T09:05:12.583Z,4.11
2019-06-07T09:07:01.565Z,3.55
2019-06-07T09:07:19.418Z,4.08
2019-06-07T09:08:30.239Z,4.13
2019-06-07T09:09:05.430Z,4.17
2019-06-07T09:10:14.922Z,3.32
2019-06-07T09:11:11.426Z,3.83
2019-06-07T09:12:11.206Z,3.85
2019-06-07T09:13:11.831Z,4.08
2019-06-07T09:14:09.407Z,3.16
2019-06-07T09:15:22.613Z,3.71
2019-06-07T09:16:08.947Z,3.78
2019-06-07T09:17:12.175Z,3.66
2019-06-07T09:18:44.159Z,3.42
2019-06-07T09:19:11.136Z,3.8
2019-06-07T09:20:30.534Z,3.8
2019-06-07T09:21:09.694Z,3.94
2019-06-07T09:22:11.228Z,4.04
2019-06-07T09:23:16.972Z,3.96
2019-06-07T09:24:11.934Z,3.49
2019-06-07T09:25:20.849Z,3.38
2019-06-07T09:26:18.027Z,3.17
2019-06-07T09:27:08.264Z,2.96
2019-06-07T09:28:18.684Z,3.56
2019-06-07T09:29:11.021Z,3.05
2019-06-07T09:30:18.148Z,3.06
2019-06-07T09:31:11.849Z,3.42
2019-06-07T09:32:11.843Z,3
2019-06-07T09:33:07.460Z,2.53
2019-06-07T09:34:13.886Z,2.88
2019-06-07T09:35:16.397Z,2.49
2019-06-07T09:36:12.464Z,2.91
2019-06-07T09:38:04.090Z,3.59
2019-06-07T09:38:24.027Z,2.7
2019-06-07T09:39:12.333Z,3.48
2019-06-07T09:40:25.418Z,3.08
2019-06-07T09:41:07.506Z,3.19
2019-06-07T09:42:12.360Z,3.34
2019-06-07T09:44:06.591Z,2.94
2019-06-07T09:44:24.497Z,2.38
2019-06-07T09:45:09.618Z,3.57
2019-06-07T09:46:14.637Z,3.57
2019-06-07T09:47:32.125Z,2.72
2019-06-07T09:48:15.853Z,2.72
2019-06-07T09:50:11.953Z,2.88
2019-06-07T09:51:18.979Z,2.62
2019-06-07T09:52:10.463Z,3.21
2019-06-07T09:53:22.167Z,3.21
2019-06-07T09:54:09.214Z,2.96
2019-06-07T09:55:23.411Z,2.63
2019-06-07T09:56:11.283Z,2.74
2019-06-07T09:57:16.123Z,2.32
2019-06-07T09:58:51.682Z,3.02
2019-06-07T10:00:41.167Z,2.96
2019-06-07T10:01:12.381Z,2.11
2019-06-07T10:02:08.753Z,2.86
2019-06-07T10:03:20.984Z,2.93
2019-06-07T10:04:21.870Z,3.18
2019-06-07T10:05:13.817Z,2.64
2019-06-07T10:06:13.167Z,2.91
2019-06-07T10:07:28.489Z,2.59
2019-06-07T10:11:03.098Z,2.63
2019-06-07T10:12:02.711Z,2.59
2019-06-07T10:13:04.374Z,2.89
2019-06-07T10:14:02.879Z,2.45
2019-06-07T10:15:03.435Z,2.67
2019-06-07T10:16:02.898Z,3.38
2019-06-07T10:17:03.335Z,3.35
2019-06-07T10:18:02.911Z,2.75
2019-06-07T10:19:05.365Z,2.8
2019-06-07T10:20:05.696Z,3.82
2019-06-07T10:21:05.369Z,2.78
2019-06-07T10:22:03.538Z,2.32
2019-06-07T10:23:03.803Z,3.28
2019-06-07T10:24:03.612Z,2.55
2019-06-07T10:25:05.926Z,2.57
2019-06-07T10:26:04.155Z,2.92
2019-06-07T10:27:04.163Z,2.21
2019-06-07T10:28:03.959Z,2.59
2019-06-07T10:29:06.815Z,3.14
2019-06-07T10:30:04.154Z,2.71
2019-06-07T10:31:04.638Z,2.62
2019-06-07T10:32:02.765Z,2.82
2019-06-07T10:33:06.745Z,2.52
2019-06-07T10:34:04.244Z,2.96
2019-06-07T10:35:05.527Z,2.16
2019-06-07T10:36:02.881Z,2.71
2019-06-07T10:37:07.543Z,2.58
2019-06-07T10:38:04.684Z,3.18
2019-06-07T10:39:03.060Z,3.3
2019-06-07T10:40:03.067Z,3.29
2019-06-07T10:41:03.035Z,2.84
2019-06-07T10:42:05.904Z,2.46
2019-06-07T10:43:03.121Z,2.85
2019-06-07T10:44:03.537Z,3.37
2019-06-07T10:45:05.902Z,2.86
2019-06-07T10:46:03.768Z,2.91
2019-06-07T10:47:04.088Z,3.25
2019-06-07T10:48:03.728Z,2.22
2019-06-07T10:49:03.902Z,2.56
2019-06-07T10:50:03.972Z,2.44
2019-06-07T10:51:04.312Z,2.97
2019-06-07T10:52:08.558Z,2.77
2019-06-07T10:53:04.384Z,3.12
2019-06-07T10:54:24.049Z,3
2019-06-07T10:55:04.632Z,2.99
2019-06-07T10:56:03.130Z,2.96
2019-06-07T10:57:03.051Z,2.82
2019-06-07T10:58:03.126Z,3.15
2019-06-07T10:59:03.218Z,2.84
2019-06-07T11:00:04.933Z,2.89
2019-06-07T11:01:03.460Z,2.97
2019-06-07T11:02:03.581Z,3.15
2019-06-07T11:03:03.729Z,2.69
2019-06-07T11:04:03.479Z,3.16
2019-06-07T11:05:03.845Z,3.16
2019-06-07T11:06:03.801Z,3.16
2019-06-07T11:07:05.030Z,3.16
2019-06-07T11:08:03.993Z,3.31
2019-06-07T11:09:03.864Z,3.31
2019-06-07T11:10:11.509Z,2.76
2019-06-07T11:11:03.917Z,3.26
2019-06-07T11:12:04.381Z,3.26
2019-06-07T11:13:04.199Z,2.59
2019-06-07T11:14:04.405Z,2.86
2019-06-07T11:15:04.672Z,2.58
2019-06-07T11:16:04.787Z,3.32
2019-06-07T11:17:02.670Z,2.95
2019-06-07T11:18:02.794Z,3.11
2019-06-07T11:19:03.216Z,2.99
2019-06-07T11:20:03.270Z,2.76
2019-06-07T11:21:02.661Z,2.67
2019-06-07T11:22:03.373Z,2.77
2019-06-07T11:23:03.255Z,3.01
2019-06-07T11:24:02.760Z,2.74
2019-06-07T11:25:03.996Z,2.86
2019-06-07T11:26:02.994Z,2.88
2019-06-07T11:27:02.505Z,2.72
2019-06-07T11:28:03.331Z,2.48
2019-06-07T11:29:02.790Z,2.85
2019-06-07T11:30:02.693Z,2.88
2019-06-07T11:31:03.130Z,2.95
2019-06-07T11:32:02.863Z,2.94
2019-06-07T11:33:02.679Z,3.16
2019-06-07T11:34:03.401Z,2.88
2019-06-07T11:35:02.943Z,2.92
2019-06-07T11:36:02.922Z,3.2
2019-06-07T11:37:03.143Z,3.18
2019-06-07T11:38:02.619Z,2.98
2019-06-07T11:39:03.271Z,3.63
2019-06-07T11:40:02.807Z,3.03
2019-06-07T11:41:03.491Z,2.97
2019-06-07T11:42:03.301Z,3.16
2019-06-07T11:43:02.453Z,2.44
2019-06-07T11:44:03.423Z,2.52
2019-06-07T11:45:03.014Z,2.78
2019-06-07T11:46:02.723Z,3.42
2019-06-07T11:47:03.382Z,3.05
2019-06-07T11:48:03.432Z,2.7
2019-06-07T11:49:03.218Z,2.94
2019-06-07T11:50:02.612Z,2.61
2019-06-07T11:51:02.527Z,3.05
2019-06-07T11:52:03.446Z,2.56
2019-06-07T11:53:02.914Z,2.88
2019-06-07T11:54:02.607Z,2.67
2019-06-07T11:55:03.427Z,2.62
2019-06-07T11:56:02.863Z,2.91
2019-06-07T11:57:03.421Z,2.98
2019-06-07T11:58:03.276Z,2.69
2019-06-07T11:59:02.917Z,2.64
2019-06-07T12:00:02.722Z,3.09
2019-06-07T12:01:03.079Z,3.31
2019-06-07T12:02:02.664Z,3.91
2019-06-07T12:03:02.621Z,3.22
2019-06-07T12:04:03.422Z,3.39
2019-06-07T12:05:02.609Z,2.91
2019-06-07T12:06:03.364Z,2.63
2019-06-07T12:07:03.023Z,2.72
2019-06-07T12:08:02.494Z,3.34
2019-06-07T12:09:03.270Z,2.93
2019-06-07T12:10:03.124Z,3.14
2019-06-07T12:11:03.065Z,3.25
2019-06-07T12:12:03.084Z,3.05
2019-06-07T12:13:01.627Z,2.95
2019-06-07T12:14:03.176Z,3.51
2019-06-07T12:15:02.990Z,2.45
2019-06-07T12:16:02.557Z,3.23
2019-06-07T12:17:02.711Z,2.78
2019-06-07T12:18:02.737Z,3.09
2019-06-07T12:19:03.212Z,3.65
2019-06-07T12:20:03.443Z,2.94
2019-06-07T12:21:02.540Z,2.94
2019-06-07T12:22:03.201Z,3.72
2019-06-07T12:23:03.074Z,3.41
2019-06-07T12:24:03.634Z,3.04
2019-06-07T12:25:06.060Z,2.84
2019-06-07T12:26:02.606Z,2.84
2019-06-07T12:27:03.543Z,3.16
2019-06-07T12:28:03.015Z,3.16
2019-06-07T12:29:02.985Z,3.51
2019-06-07T12:30:16.475Z,3.1
2019-06-07T12:31:02.984Z,3.1
2019-06-07T12:32:02.619Z,3.04
2019-06-07T12:33:03.686Z,3.04
2019-06-07T12:34:02.573Z,2.94
2019-06-07T12:35:02.320Z,3.21
2019-06-07T12:36:03.282Z,3.24
2019-06-07T12:37:02.690Z,3.01
2019-06-07T12:38:03.297Z,3.01
2019-06-07T12:39:03.125Z,2.79
2019-06-07T12:40:02.454Z,2.76
2019-06-07T12:41:03.184Z,3.35
2019-06-07T12:42:02.755Z,3.05
2019-06-07T12:43:02.608Z,3.24
2019-06-07T12:44:03.414Z,2.94
2019-06-07T12:45:02.847Z,3.22
2019-06-07T12:46:03.431Z,2.84
2019-06-07T12:47:02.844Z,3.12
2019-06-07T12:48:02.554Z,3.02
2019-06-07T12:49:02.811Z,3.6
2019-06-07T12:50:03.145Z,3.19
2019-06-07T12:51:03.380Z,3.02
2019-06-07T12:52:03.037Z,3.26
2019-06-07T12:53:02.907Z,2.76
2019-06-07T12:54:02.655Z,2.82
2019-06-07T12:55:03.095Z,2.91
2019-06-07T12:56:02.790Z,2.97
2019-06-07T12:57:03.499Z,3.46
2019-06-07T12:58:03.102Z,3.26
2019-06-07T12:59:02.935Z,3.18
2019-06-07T13:00:03.586Z,2.65
2019-06-07T13:01:02.674Z,2.95
2019-06-07T13:02:02.852Z,3.08
2019-06-07T13:03:02.825Z,3.4
2019-06-07T13:04:03.546Z,2.89
2019-06-07T13:05:05.059Z,3.51
2019-06-07T13:06:03.092Z,2.55
2019-06-07T13:07:02.442Z,2.81
2019-06-07T13:08:03.277Z,3.04
2019-06-07T13:09:02.963Z,2.95
2019-06-07T13:10:02.686Z,3.04
2019-06-07T13:11:22.051Z,3.17
2019-06-07T13:12:02.599Z,2.88
2019-06-07T13:13:03.450Z,3.39
2019-06-07T13:14:02.968Z,2.68
2019-06-07T13:15:02.750Z,2.73
2019-06-07T13:16:03.917Z,2.51
2019-06-07T13:17:02.860Z,2.9
2019-06-07T13:18:02.541Z,3.11
2019-06-07T13:19:02.755Z,2.76
2019-06-07T13:20:03.086Z,2.96
2019-06-07T13:21:03.656Z,2.65
2019-06-07T13:22:03.211Z,3.06
2019-06-07T13:23:02.410Z,2.86
2019-06-07T13:24:02.533Z,2.58
2019-06-07T13:25:03.252Z,3.01
2019-06-07T13:26:02.930Z,3.25
2019-06-07T13:27:02.460Z,2.73
2019-06-07T13:28:03.085Z,2.98
2019-06-07T13:29:02.655Z,3.46